createdAt,value
2023-12-08T00:01:35.445Z,18.65
2023-12-08T00:04:02.003Z,19.63
2023-12-08T00:06:28.507Z,19.10
2023-12-08T00:08:55.162Z,19.63
2023-12-08T00:11:21.666Z,20.85
2023-12-08T00:13:48.191Z,19.02
2023-12-08T00:16:14.913Z,18.35
2023-12-08T00:18:41.594Z,19.30
2023-12-08T00:21:08.265Z,18.90
2023-12-08T00:23:35.722Z,20.60
2023-12-08T00:26:04.631Z,20.40
2023-12-08T00:28:31.126Z,21.15
2023-12-08T00:30:57.622Z,19.55
2023-12-08T00:33:24.309Z,19.45
2023-12-08T00:35:50.994Z,20.88
2023-12-08T00:38:18.223Z,21.40
2023-12-08T00:40:44.715Z,20.13
2023-12-08T00:43:11.262Z,21.30
2023-12-08T00:45:37.740Z,21.40
2023-12-08T00:48:04.721Z,21.40
2023-12-08T00:50:31.468Z,21.50
2023-12-08T00:52:57.964Z,22.02
2023-12-08T00:55:24.446Z,20.80
2023-12-08T00:57:50.998Z,21.15
2023-12-08T01:00:18.058Z,20.30
2023-12-08T01:02:44.691Z,19.55
2023-12-08T01:05:14.430Z,19.90
2023-12-08T01:07:40.930Z,20.23
2023-12-08T01:10:07.940Z,18.55
2023-12-08T01:12:34.441Z,19.67
2023-12-08T01:15:00.968Z,19.08
2023-12-08T01:17:27.716Z,19.17
2023-12-08T01:19:54.490Z,18.27
2023-12-08T01:22:20.945Z,20.75
2023-12-08T01:24:47.453Z,20.40
2023-12-08T01:27:14.230Z,19.95
2023-12-08T01:29:40.924Z,20.55
2023-12-08T01:32:07.477Z,20.30
2023-12-08T01:34:34.182Z,19.25
2023-12-08T01:37:00.910Z,17.25
2023-12-08T01:39:30.445Z,17.83
2023-12-08T01:41:57.034Z,16.40
2023-12-08T01:44:23.662Z,17.17
2023-12-08T01:46:51.146Z,17.88
2023-12-08T01:49:18.247Z,16.48
2023-12-08T01:51:45.951Z,16.52
2023-12-08T01:54:14.051Z,15.20
2023-12-08T01:56:41.486Z,16.70
2023-12-08T01:59:09.543Z,15.93
2023-12-08T02:01:36.215Z,16.00
2023-12-08T02:04:03.491Z,16.25
2023-12-08T02:06:30.056Z,16.00
2023-12-08T02:08:56.651Z,16.80
2023-12-08T02:11:23.248Z,15.18
2023-12-08T02:13:49.885Z,16.00
2023-12-08T02:16:37.350Z,15.45
2023-12-08T02:19:07.888Z,14.50
2023-12-08T02:21:35.686Z,16.15
2023-12-08T02:24:02.270Z,15.25
2023-12-08T02:26:28.791Z,15.65
2023-12-08T02:28:55.869Z,14.82
2023-12-08T02:31:28.232Z,14.98
2023-12-08T02:33:56.590Z,15.35
2023-12-08T02:36:24.568Z,15.02
2023-12-08T02:38:52.857Z,14.38
2023-12-08T02:41:19.809Z,14.05
2023-12-08T02:43:46.415Z,14.30
2023-12-08T02:46:12.945Z,15.30
2023-12-08T02:48:39.668Z,13.95
2023-12-08T02:51:07.656Z,14.45
2023-12-08T02:53:34.262Z,14.02
2023-12-08T02:56:00.840Z,14.27
2023-12-08T02:58:27.427Z,14.75
2023-12-08T03:00:54.026Z,14.98
2023-12-08T03:03:21.146Z,14.48
2023-12-08T03:05:47.802Z,14.52
2023-12-08T03:08:14.431Z,15.07
2023-12-08T03:10:40.937Z,14.55
2023-12-08T03:13:07.516Z,14.50
2023-12-08T03:15:34.001Z,15.38
2023-12-08T03:18:00.701Z,15.60
2023-12-08T03:20:27.365Z,15.27
2023-12-08T03:22:53.954Z,14.60
2023-12-08T03:25:20.571Z,14.73
2023-12-08T03:27:47.123Z,16.35
2023-12-08T03:30:14.160Z,15.23
2023-12-08T03:32:40.936Z,14.18
2023-12-08T03:35:07.869Z,14.25
2023-12-08T03:37:34.383Z,15.80
2023-12-08T03:40:01.099Z,14.40
2023-12-08T03:42:28.628Z,14.93
2023-12-08T03:44:55.151Z,14.13
2023-12-08T03:47:21.796Z,14.45
2023-12-08T03:49:48.449Z,13.20
2023-12-08T03:52:15.027Z,13.27
2023-12-08T03:54:41.596Z,12.00
2023-12-08T03:57:08.179Z,11.23
2023-12-08T03:59:34.868Z,11.38
2023-12-08T04:02:03.654Z,10.82
2023-12-08T04:04:30.299Z,10.60
2023-12-08T04:06:57.292Z,9.90
2023-12-08T04:09:25.605Z,8.85
2023-12-08T04:11:53.392Z,9.00
2023-12-08T04:14:19.923Z,8.90
2023-12-08T04:16:46.411Z,9.60
2023-12-08T04:19:13.301Z,9.50
2023-12-08T04:21:40.030Z,9.65
2023-12-08T04:24:07.110Z,9.38
2023-12-08T04:26:33.662Z,10.40
2023-12-08T04:29:00.240Z,9.55
2023-12-08T04:31:26.798Z,10.85
2023-12-08T04:33:53.458Z,14.75
2023-12-08T04:36:20.189Z,15.02
2023-12-08T04:38:46.748Z,10.77
2023-12-08T04:41:13.257Z,10.85
2023-12-08T04:43:39.822Z,10.93
2023-12-08T04:46:06.526Z,12.38
2023-12-08T04:48:33.181Z,12.35
2023-12-08T04:50:59.826Z,12.93
2023-12-08T04:53:26.449Z,12.35
2023-12-08T04:55:52.932Z,12.23
2023-12-08T04:58:19.640Z,13.68
2023-12-08T05:00:46.142Z,12.50
2023-12-08T05:03:12.774Z,13.88
2023-12-08T05:05:39.601Z,23.52
2023-12-08T05:08:06.213Z,23.40
2023-12-08T05:10:32.938Z,18.05
2023-12-08T05:12:59.525Z,13.23
2023-12-08T05:15:26.058Z,14.70
2023-12-08T05:17:52.675Z,12.25
2023-12-08T05:20:19.298Z,13.23
2023-12-08T05:22:45.804Z,12.98
2023-12-08T05:25:12.354Z,10.15
2023-12-08T05:27:38.864Z,10.52
2023-12-08T05:30:06.074Z,12.88
2023-12-08T05:32:32.707Z,11.43
2023-12-08T05:34:59.305Z,10.20
2023-12-08T05:37:26.100Z,8.80
2023-12-08T05:39:52.848Z,8.20
2023-12-08T05:42:19.396Z,8.85
2023-12-08T05:44:45.937Z,9.13
2023-12-08T05:47:12.542Z,9.95
2023-12-08T05:49:39.223Z,8.65
2023-12-08T05:52:06.208Z,9.45
2023-12-08T05:54:32.712Z,9.10
2023-12-08T05:56:59.271Z,9.32
2023-12-08T05:59:25.865Z,9.88
2023-12-08T06:01:52.383Z,8.80
2023-12-08T06:04:18.965Z,9.50
2023-12-08T06:06:45.646Z,10.52
2023-12-08T06:09:12.256Z,10.00
2023-12-08T06:11:38.779Z,10.43
2023-12-08T06:14:05.362Z,9.43
2023-12-08T06:16:31.861Z,9.68
2023-12-08T06:18:58.532Z,9.30
2023-12-08T06:21:25.078Z,9.82
2023-12-08T06:23:51.698Z,11.13
2023-12-08T06:26:18.294Z,10.63
2023-12-08T06:28:44.894Z,9.57
2023-12-08T06:31:11.397Z,9.68
2023-12-08T06:33:38.052Z,10.52
2023-12-08T06:36:05.539Z,9.60
2023-12-08T06:38:32.243Z,9.98
2023-12-08T06:40:58.800Z,9.82
2023-12-08T06:43:25.587Z,10.75
2023-12-08T06:45:52.178Z,10.32
2023-12-08T06:48:18.869Z,9.95
2023-12-08T06:50:45.549Z,10.43
2023-12-08T06:53:12.097Z,10.77
2023-12-08T06:55:38.635Z,11.70
2023-12-08T06:58:05.171Z,9.85
2023-12-08T07:00:32.216Z,9.02
2023-12-08T07:02:58.802Z,9.45
2023-12-08T07:05:25.335Z,9.75
2023-12-08T07:07:52.234Z,8.38
2023-12-08T07:10:18.788Z,8.23
2023-12-08T07:12:45.372Z,8.75
2023-12-08T07:15:12.086Z,8.38
2023-12-08T07:17:38.998Z,7.45
2023-12-08T07:20:07.605Z,9.20
2023-12-08T07:22:34.169Z,8.73
2023-12-08T07:25:00.799Z,8.73
2023-12-08T07:27:28.825Z,8.30
2023-12-08T07:29:55.546Z,7.45
2023-12-08T07:32:22.227Z,9.05
2023-12-08T07:34:48.805Z,8.18
2023-12-08T07:37:15.529Z,8.95
2023-12-08T07:39:42.093Z,8.30
2023-12-08T07:42:08.699Z,8.45
2023-12-08T07:44:35.306Z,8.52
2023-12-08T07:47:02.107Z,8.30
2023-12-08T07:49:29.287Z,7.68
2023-12-08T07:51:55.897Z,6.30
2023-12-08T07:54:22.438Z,6.53
2023-12-08T07:56:49.120Z,5.65
2023-12-08T07:59:15.637Z,4.88
2023-12-08T08:01:42.186Z,4.32
2023-12-08T08:04:08.672Z,3.97
2023-12-08T08:06:35.261Z,3.22
2023-12-08T08:09:01.913Z,3.15
2023-12-08T08:11:28.861Z,3.20
2023-12-08T08:13:55.398Z,3.58
2023-12-08T08:16:22.034Z,2.90
2023-12-08T08:18:48.730Z,2.80
2023-12-08T08:21:15.493Z,3.22
2023-12-08T08:23:42.221Z,2.45
2023-12-08T08:26:08.827Z,2.33
2023-12-08T08:28:35.341Z,2.35
2023-12-08T08:31:01.900Z,2.30
2023-12-08T08:33:28.592Z,2.30
2023-12-08T08:35:55.460Z,2.70
2023-12-08T08:38:22.013Z,2.60
2023-12-08T08:40:49.102Z,2.92
2023-12-08T08:43:15.716Z,2.08
2023-12-08T08:45:42.288Z,2.90
2023-12-08T08:48:09.187Z,2.05
2023-12-08T08:50:43.576Z,2.60
2023-12-08T08:53:15.862Z,2.83
2023-12-08T08:55:42.358Z,3.00
2023-12-08T08:58:08.984Z,2.35
2023-12-08T09:00:35.775Z,2.42
2023-12-08T09:03:02.468Z,2.40
2023-12-08T09:05:29.334Z,2.17
2023-12-08T09:07:56.037Z,1.95
2023-12-08T09:10:22.685Z,2.67
2023-12-08T09:12:49.321Z,2.50
2023-12-08T09:15:16.290Z,3.13
2023-12-08T09:17:43.204Z,2.85
2023-12-08T09:20:10.187Z,3.13
2023-12-08T09:22:36.802Z,3.00
2023-12-08T09:25:04.203Z,2.13
2023-12-08T09:27:30.945Z,2.42
2023-12-08T09:29:57.964Z,1.77
2023-12-08T09:32:24.829Z,2.55
2023-12-08T09:34:51.710Z,2.70
2023-12-08T09:37:27.165Z,2.03
2023-12-08T09:40:02.399Z,2.53
2023-12-08T09:42:37.084Z,2.60
2023-12-08T09:45:07.473Z,2.45
2023-12-08T09:47:38.170Z,2.88
2023-12-08T09:50:05.726Z,2.80
2023-12-08T09:52:33.254Z,2.80
2023-12-08T09:54:59.839Z,3.08
2023-12-08T09:57:29.948Z,2.78
2023-12-08T09:59:58.927Z,2.72
2023-12-08T10:02:25.470Z,2.47
2023-12-08T10:04:52.372Z,2.35
2023-12-08T10:07:20.801Z,1.80
2023-12-08T10:09:47.527Z,2.65
2023-12-08T10:12:14.141Z,2.28
2023-12-08T10:14:57.269Z,2.38
2023-12-08T10:17:24.871Z,2.22
2023-12-08T10:19:51.777Z,2.30
2023-12-08T10:22:18.580Z,1.90
2023-12-08T10:24:46.181Z,2.00
2023-12-08T10:27:12.870Z,1.80
2023-12-08T10:29:39.583Z,2.10
2023-12-08T10:32:06.406Z,2.38
2023-12-08T10:34:33.152Z,2.78
2023-12-08T10:36:59.952Z,3.25
2023-12-08T10:39:26.548Z,2.65
2023-12-08T10:41:53.668Z,2.70
2023-12-08T10:44:24.156Z,2.75
2023-12-08T10:46:52.566Z,3.50
2023-12-08T10:49:20.942Z,3.55
2023-12-08T10:51:48.525Z,3.15
2023-12-08T10:54:16.149Z,3.25
2023-12-08T10:56:43.490Z,2.22
2023-12-08T10:59:11.369Z,2.20
2023-12-08T11:01:40.158Z,2.60
2023-12-08T11:04:10.801Z,2.10
2023-12-08T11:06:47.488Z,3.20
2023-12-08T11:09:17.559Z,3.50
2023-12-08T11:11:52.942Z,5.90
2023-12-08T11:14:43.322Z,3.45
2023-12-08T11:17:31.816Z,4.50
2023-12-08T11:20:00.597Z,3.85
2023-12-08T11:22:27.611Z,3.72
2023-12-08T11:24:57.162Z,4.22
2023-12-08T11:27:28.501Z,4.35
2023-12-08T11:30:07.242Z,4.53
2023-12-08T11:32:36.966Z,2.97
2023-12-08T11:35:07.508Z,3.25
2023-12-08T11:37:34.293Z,1.95
2023-12-08T11:40:02.556Z,1.30
2023-12-08T11:42:29.569Z,2.08
2023-12-08T11:44:57.880Z,2.70
2023-12-08T11:47:26.702Z,1.17
2023-12-08T11:49:55.810Z,2.00
2023-12-08T11:52:33.441Z,1.60
2023-12-08T11:55:15.262Z,1.67
2023-12-08T11:57:49.043Z,2.58
2023-12-08T12:00:23.653Z,2.00
2023-12-08T12:02:51.678Z,2.10
2023-12-08T12:05:18.896Z,1.65
2023-12-08T12:07:49.427Z,1.83
2023-12-08T12:10:24.521Z,1.80
2023-12-08T12:12:56.341Z,2.00
2023-12-08T12:15:24.183Z,2.90
2023-12-08T12:17:52.162Z,4.57
2023-12-08T12:20:19.546Z,7.53
2023-12-08T12:22:46.122Z,7.10
2023-12-08T12:25:12.829Z,6.22
2023-12-08T12:27:44.605Z,7.10
2023-12-08T12:30:12.158Z,6.72
2023-12-08T12:32:39.689Z,6.88
2023-12-08T12:35:07.770Z,7.28
2023-12-08T12:37:35.459Z,8.85
2023-12-08T12:40:02.016Z,7.35
2023-12-08T12:42:28.903Z,7.45
2023-12-08T12:44:55.519Z,7.65
2023-12-08T12:47:24.907Z,6.63
2023-12-08T12:50:01.812Z,5.90
2023-12-08T12:52:29.312Z,4.40
2023-12-08T12:54:56.486Z,4.43
2023-12-08T12:57:44.549Z,4.00
2023-12-08T13:00:12.381Z,3.63
2023-12-08T13:02:40.282Z,3.13
2023-12-08T13:05:08.458Z,4.78
2023-12-08T13:07:35.950Z,4.75
2023-12-08T13:10:03.652Z,2.40
2023-12-08T13:12:30.198Z,2.80
2023-12-08T13:14:57.703Z,2.28
2023-12-08T13:17:25.449Z,2.53
2023-12-08T13:19:52.299Z,2.65
2023-12-08T13:22:19.070Z,3.35
2023-12-08T13:24:45.770Z,2.95
2023-12-08T13:27:12.365Z,3.67
2023-12-08T13:29:38.974Z,5.03
2023-12-08T13:32:05.733Z,5.25
2023-12-08T13:34:32.402Z,6.50
2023-12-08T13:36:59.258Z,6.15
2023-12-08T13:39:25.808Z,6.93
2023-12-08T13:41:52.864Z,7.30
2023-12-08T13:44:19.433Z,8.35
2023-12-08T13:46:45.953Z,7.68
2023-12-08T13:49:12.510Z,6.75
2023-12-08T13:51:40.567Z,6.30
2023-12-08T13:54:07.500Z,5.53
2023-12-08T13:56:34.121Z,5.45
2023-12-08T13:59:00.723Z,4.53
2023-12-08T14:01:27.345Z,4.03
2023-12-08T14:03:54.156Z,4.75
2023-12-08T14:06:21.021Z,5.85
2023-12-08T14:08:47.813Z,6.63
2023-12-08T14:11:14.396Z,7.03
2023-12-08T14:13:40.979Z,8.98
2023-12-08T14:16:07.820Z,5.90
2023-12-08T14:18:34.502Z,7.30
2023-12-08T14:21:01.179Z,6.25
2023-12-08T14:23:27.759Z,4.47
2023-12-08T14:25:54.298Z,4.50
2023-12-08T14:28:20.827Z,7.38
2023-12-08T14:30:47.395Z,12.15
2023-12-08T14:33:14.036Z,12.73
2023-12-08T14:35:41.741Z,6.75
2023-12-08T14:38:08.477Z,7.68
2023-12-08T14:40:35.703Z,7.07
2023-12-08T14:43:02.354Z,6.55
2023-12-08T14:45:29.040Z,7.40
2023-12-08T14:47:55.770Z,7.88
2023-12-08T14:50:22.326Z,8.15
2023-12-08T14:52:48.946Z,7.00
2023-12-08T14:55:16.936Z,7.05
2023-12-08T14:57:45.147Z,7.50
2023-12-08T15:00:12.573Z,6.63
2023-12-08T15:02:39.233Z,5.70
2023-12-08T15:05:06.136Z,5.93
2023-12-08T15:07:33.046Z,6.35
2023-12-08T15:09:59.681Z,7.13
2023-12-08T15:12:28.635Z,6.63
2023-12-08T15:14:55.336Z,6.45
2023-12-08T15:17:21.884Z,6.78
2023-12-08T15:19:48.503Z,7.43
2023-12-08T15:22:15.081Z,7.25
2023-12-08T15:24:41.643Z,7.47
2023-12-08T15:27:08.170Z,6.88
2023-12-08T15:29:34.665Z,7.35
2023-12-08T15:32:01.189Z,8.52
2023-12-08T15:34:27.930Z,7.07
2023-12-08T15:36:54.571Z,6.60
2023-12-08T15:39:21.316Z,8.02
2023-12-08T15:41:48.002Z,7.85
2023-12-08T15:44:14.607Z,6.75
2023-12-08T15:46:41.162Z,7.70
2023-12-08T15:49:07.793Z,7.95
2023-12-08T15:51:34.743Z,11.00
2023-12-08T15:54:01.302Z,8.38
2023-12-08T15:56:27.818Z,9.15
2023-12-08T15:58:54.494Z,10.43
2023-12-08T16:01:21.907Z,7.90
2023-12-08T16:03:48.693Z,7.70
2023-12-08T16:06:16.843Z,7.70
2023-12-08T16:08:44.398Z,7.93
2023-12-08T16:11:12.865Z,8.48
2023-12-08T16:13:40.579Z,94.18
2023-12-08T16:16:08.326Z,10.95
2023-12-08T16:18:35.112Z,10.13
2023-12-08T16:21:02.420Z,10.05
2023-12-08T16:23:29.047Z,8.35
2023-12-08T16:26:00.814Z,8.68
2023-12-08T16:30:53.796Z,8.95
2023-12-08T16:33:20.497Z,9.10
2023-12-08T16:35:47.091Z,11.00
2023-12-08T16:38:13.707Z,9.88
2023-12-08T16:40:41.715Z,10.45
2023-12-08T16:43:08.303Z,8.95
2023-12-08T16:45:35.556Z,9.35
2023-12-08T16:48:02.194Z,8.05
2023-12-08T16:50:28.717Z,8.43
2023-12-08T16:52:55.189Z,8.23
2023-12-08T16:55:21.778Z,8.48
2023-12-08T16:57:48.352Z,9.40
2023-12-08T17:00:15.314Z,9.43
2023-12-08T17:02:41.960Z,9.02
2023-12-08T17:05:08.737Z,8.35
2023-12-08T17:07:35.296Z,9.45
2023-12-08T17:10:02.654Z,9.40
2023-12-08T17:12:29.570Z,12.20
2023-12-08T17:14:56.356Z,12.07
2023-12-08T17:17:22.899Z,11.43
2023-12-08T17:19:49.434Z,10.02
2023-12-08T17:22:16.227Z,9.27
2023-12-08T17:24:42.792Z,10.05
2023-12-08T17:27:09.393Z,8.43
2023-12-08T17:29:36.069Z,37.88
2023-12-08T17:32:02.649Z,9.18
2023-12-08T17:34:30.474Z,10.85
2023-12-08T17:36:58.150Z,11.18
2023-12-08T17:39:24.926Z,10.63
2023-12-08T17:41:53.164Z,9.52
2023-12-08T17:44:19.829Z,9.90
2023-12-08T17:46:47.344Z,9.63
2023-12-08T17:49:14.551Z,9.82
2023-12-08T17:51:41.218Z,9.45
2023-12-08T17:54:08.106Z,9.48
2023-12-08T17:56:34.660Z,11.23
2023-12-08T17:59:01.156Z,12.20
2023-12-08T18:01:27.800Z,9.60
2023-12-08T18:03:54.442Z,10.40
2023-12-08T18:06:21.213Z,11.20
2023-12-08T18:08:47.748Z,10.40
2023-12-08T18:11:24.552Z,10.55
2023-12-08T18:13:51.215Z,12.40
2023-12-08T18:16:21.786Z,10.98
2023-12-08T18:18:48.489Z,11.57
2023-12-08T18:21:24.969Z,11.25
2023-12-08T18:23:51.606Z,12.25
2023-12-08T18:26:18.249Z,11.02
2023-12-08T18:29:07.753Z,15.38
2023-12-08T18:32:02.678Z,14.07
2023-12-08T18:34:29.412Z,14.93
2023-12-08T18:36:56.091Z,11.98
2023-12-08T18:39:22.745Z,14.48
2023-12-08T18:41:49.470Z,16.77
2023-12-08T18:44:16.063Z,18.60
2023-12-08T18:46:42.614Z,15.55
2023-12-08T18:49:09.364Z,19.85
2023-12-08T18:51:36.062Z,16.00
2023-12-08T18:54:02.819Z,11.82
2023-12-08T18:56:29.496Z,12.40
2023-12-08T18:58:56.001Z,12.50
2023-12-08T19:01:22.722Z,14.63
2023-12-08T19:03:49.320Z,13.18
2023-12-08T19:06:16.446Z,22.00
2023-12-08T19:08:43.417Z,20.42
2023-12-08T19:11:10.187Z,21.88
2023-12-08T19:13:36.948Z,16.33
2023-12-08T19:16:05.452Z,12.60
2023-12-08T19:18:32.859Z,10.93
2023-12-08T19:20:59.528Z,10.43
2023-12-08T19:23:28.752Z,14.10
2023-12-08T19:25:55.603Z,13.90
2023-12-08T19:28:22.703Z,17.27
2023-12-08T19:30:49.593Z,18.27
2023-12-08T19:33:17.582Z,18.00
2023-12-08T19:35:44.998Z,16.60
2023-12-08T19:38:11.974Z,20.23
2023-12-08T19:40:38.533Z,19.42
2023-12-08T19:43:05.128Z,16.02
2023-12-08T19:45:31.858Z,19.02
2023-12-08T19:47:58.550Z,17.25
2023-12-08T19:50:25.749Z,17.92
2023-12-08T19:52:52.609Z,22.25
2023-12-08T19:55:20.230Z,19.83
2023-12-08T19:57:46.827Z,17.23
2023-12-08T20:00:14.246Z,21.48
2023-12-08T20:02:41.571Z,23.77
2023-12-08T20:05:08.815Z,19.77
2023-12-08T20:07:35.409Z,21.40
2023-12-08T20:10:02.082Z,17.90
2023-12-08T20:12:28.643Z,20.40
2023-12-08T20:14:55.307Z,18.90
2023-12-08T20:17:23.300Z,19.48
2023-12-08T20:19:52.362Z,15.55
2023-12-08T20:22:19.868Z,14.85
2023-12-08T20:24:46.393Z,13.18
2023-12-08T20:27:13.009Z,14.00
2023-12-08T20:29:39.643Z,14.18
2023-12-08T20:32:06.777Z,12.23
2023-12-08T20:34:33.456Z,12.80
2023-12-08T20:37:00.323Z,11.00
2023-12-08T20:39:26.936Z,11.13
2023-12-08T20:41:54.650Z,9.95
2023-12-08T20:44:21.210Z,11.88
2023-12-08T20:46:47.868Z,10.02
2023-12-08T20:49:15.008Z,10.57
2023-12-08T20:51:41.745Z,11.02
2023-12-08T20:54:08.453Z,9.07
2023-12-08T20:56:34.989Z,11.55
2023-12-08T20:59:01.534Z,9.07
2023-12-08T21:01:28.478Z,8.77
2023-12-08T21:03:55.534Z,6.70
2023-12-08T21:06:22.146Z,4.55
2023-12-08T21:08:48.790Z,3.25
2023-12-08T21:11:15.358Z,3.10
2023-12-08T21:13:41.901Z,3.17
2023-12-08T21:16:08.673Z,3.40
2023-12-08T21:18:35.268Z,1.85
2023-12-08T21:21:01.927Z,1.80
2023-12-08T21:23:28.630Z,3.03
2023-12-08T21:25:55.140Z,5.30
2023-12-08T21:28:21.648Z,3.50
2023-12-08T21:30:48.281Z,2.70
2023-12-08T21:33:15.001Z,2.38
2023-12-08T21:35:41.884Z,2.38
2023-12-08T21:38:08.402Z,1.60
2023-12-08T21:40:34.932Z,1.63
2023-12-08T21:43:01.473Z,1.42
2023-12-08T21:45:28.070Z,2.15
2023-12-08T21:47:54.647Z,1.50
2023-12-08T21:50:21.302Z,1.30
2023-12-08T21:52:50.219Z,1.63
2023-12-08T21:55:18.344Z,1.80
2023-12-08T21:57:44.945Z,2.05
2023-12-08T22:00:12.368Z,2.15
2023-12-08T22:02:40.792Z,1.85
2023-12-08T22:05:08.102Z,2.35
2023-12-08T22:07:34.662Z,1.67
2023-12-08T22:10:01.328Z,1.58
2023-12-08T22:12:27.924Z,1.60
2023-12-08T22:14:54.548Z,1.40
2023-12-08T22:17:21.157Z,1.98
2023-12-08T22:19:47.854Z,1.70
2023-12-08T22:22:14.481Z,1.50
2023-12-08T22:24:41.168Z,1.90
2023-12-08T22:27:07.876Z,1.35
2023-12-08T22:29:34.495Z,1.30
2023-12-08T22:32:01.127Z,1.05
2023-12-08T22:34:27.813Z,0.80
2023-12-08T22:36:54.495Z,1.30
2023-12-08T22:39:21.121Z,1.02
2023-12-08T22:41:47.729Z,1.02
2023-12-08T22:44:14.355Z,0.90
2023-12-08T22:46:40.962Z,0.90
2023-12-08T22:49:07.570Z,0.80
2023-12-08T22:51:43.504Z,1.15
2023-12-08T22:54:20.654Z,1.65
2023-12-08T22:56:47.261Z,1.77
2023-12-08T22:59:13.899Z,2.75
2023-12-08T23:01:40.589Z,2.70
2023-12-08T23:04:07.733Z,2.20
2023-12-08T23:06:34.409Z,2.75
2023-12-08T23:09:01.047Z,3.53
2023-12-08T23:11:27.643Z,3.78
2023-12-08T23:13:54.193Z,4.05
2023-12-08T23:16:20.761Z,3.28
2023-12-08T23:18:49.981Z,2.67
2023-12-08T23:21:16.594Z,2.85
2023-12-08T23:23:43.368Z,3.30
2023-12-08T23:26:09.922Z,3.17
2023-12-08T23:28:36.470Z,2.33
2023-12-08T23:31:03.938Z,2.85
2023-12-08T23:33:31.404Z,2.20
2023-12-08T23:35:58.165Z,2.05
2023-12-08T23:38:24.756Z,3.05
2023-12-08T23:40:51.259Z,2.83
2023-12-08T23:43:18.037Z,3.00
2023-12-08T23:45:44.615Z,2.22
2023-12-08T23:48:11.469Z,2.72
2023-12-08T23:50:38.211Z,2.15
2023-12-08T23:53:04.676Z,2.05
2023-12-08T23:55:31.342Z,2.53
2023-12-08T23:57:58.090Z,2.70
